createdAt,value
2022-08-17T00:01:51.776Z,100048.47
2022-08-17T00:04:22.541Z,100039.53
2022-08-17T00:06:53.388Z,100034.41
2022-08-17T00:09:23.629Z,100046.84
2022-08-17T00:12:34.882Z,100036.28
2022-08-17T00:14:43.836Z,100036.31
2022-08-17T00:17:13.867Z,100038.22
2022-08-17T00:19:44.465Z,100029.03
2022-08-17T00:22:32.890Z,100031.22
2022-08-17T00:25:10.973Z,100030.72
2022-08-17T00:27:42.172Z,100030.44
2022-08-17T00:30:15.535Z,100032.09
2022-08-17T00:33:12.354Z,100034.25
2022-08-17T00:35:40.895Z,100035.34
2022-08-17T00:38:11.728Z,100032.63
2022-08-17T00:40:44.836Z,100024.78
2022-08-17T00:43:21.642Z,100023.16
2022-08-17T00:45:52.024Z,100025.56
2022-08-17T00:48:28.836Z,100023.97
2022-08-17T00:51:24.065Z,100035.66
2022-08-17T00:54:13.328Z,100021.59
2022-08-17T00:57:12.770Z,100015.91
2022-08-17T01:00:02.599Z,100020.75
2022-08-17T01:02:42.652Z,100014.28
2022-08-17T01:05:26.347Z,100018.88
2022-08-17T01:07:58.739Z,100013.19
2022-08-17T01:10:59.609Z,100017.78
2022-08-17T01:13:29.087Z,100019.38
2022-08-17T01:16:21.943Z,100016.97
2022-08-17T01:18:54.928Z,100022.34
2022-08-17T01:21:57.524Z,100015.28
2022-08-17T01:24:27.800Z,100026.38
2022-08-17T01:26:57.937Z,100022.31
2022-08-17T01:29:32.090Z,100029.84
2022-08-17T01:32:06.820Z,100022.81
2022-08-17T01:34:42.814Z,100017.91
2022-08-17T01:37:16.718Z,100024.13
2022-08-17T01:39:59.625Z,100017.88
2022-08-17T01:42:45.555Z,100017.84
2022-08-17T01:45:28.775Z,100018.09
2022-08-17T01:47:59.129Z,100022.16
2022-08-17T01:50:42.284Z,100018.88
2022-08-17T01:53:41.135Z,100018.06
2022-08-17T01:56:15.866Z,100013.16
2022-08-17T01:58:47.018Z,100015.03
2022-08-17T02:01:24.762Z,100007.69
2022-08-17T02:03:59.778Z,100017.16
2022-08-17T02:06:54.083Z,100012.75
2022-08-17T02:09:30.186Z,100012.72
2022-08-17T02:12:39.454Z,100026.81
2022-08-17T02:15:08.165Z,100016.78
2022-08-17T02:17:55.797Z,100012.22
2022-08-17T02:20:49.145Z,100009.50
2022-08-17T02:23:47.118Z,100010.06
2022-08-17T02:26:25.494Z,100009.50
2022-08-17T02:29:04.902Z,100002.69
2022-08-17T02:31:40.651Z,100001.59
2022-08-17T02:34:19.060Z,100001.81
2022-08-17T02:36:49.210Z,99995.59
2022-08-17T02:39:32.426Z,99994.22
2022-08-17T02:42:13.990Z,99992.00
2022-08-17T02:47:39.847Z,99999.28
2022-08-17T02:50:11.793Z,99988.66
2022-08-17T02:52:44.151Z,99989.47
2022-08-17T02:55:20.747Z,99995.69
2022-08-17T02:57:51.849Z,99996.81
2022-08-17T03:00:35.301Z,99990.53
2022-08-17T03:03:07.634Z,99984.88
2022-08-17T03:05:43.720Z,99981.59
2022-08-17T03:08:14.226Z,99983.47
2022-08-17T03:10:46.358Z,99972.03
2022-08-17T03:13:17.005Z,99967.66
2022-08-17T03:15:49.678Z,99970.63
2022-08-17T03:18:25.627Z,99966.78
2022-08-17T03:20:59.716Z,99971.13
2022-08-17T03:23:30.518Z,99968.69
2022-08-17T03:26:02.223Z,99963.84
2022-08-17T03:28:33.185Z,99963.03
2022-08-17T03:31:04.325Z,99966.03
2022-08-17T03:33:36.154Z,99969.03
2022-08-17T03:36:06.848Z,99962.22
2022-08-17T03:38:39.253Z,99964.06
2022-08-17T03:41:10.175Z,99954.78
2022-08-17T03:43:41.082Z,99959.06
2022-08-17T03:46:38.571Z,99946.31
2022-08-17T03:49:36.300Z,99957.94
2022-08-17T03:52:40.731Z,99950.81
2022-08-17T03:55:40.178Z,99939.09
2022-08-17T03:58:17.204Z,99945.31
2022-08-17T04:01:17.609Z,99940.91
2022-08-17T04:04:05.541Z,99943.34
2022-08-17T04:06:35.733Z,99950.13
2022-08-17T04:09:11.259Z,99936.59
2022-08-17T04:11:44.856Z,99938.13
2022-08-17T04:14:25.754Z,99932.41
2022-08-17T04:16:56.404Z,99932.66
2022-08-17T04:19:26.375Z,99926.66
2022-08-17T04:21:56.445Z,99931.44
2022-08-17T04:24:27.163Z,99934.09
2022-08-17T04:26:57.095Z,99925.34
2022-08-17T04:29:54.422Z,99923.06
2022-08-17T04:32:24.843Z,99918.13
2022-08-17T04:35:10.369Z,99919.66
2022-08-17T04:37:40.673Z,99920.16
2022-08-17T04:40:28.291Z,99913.34
2022-08-17T04:43:11.301Z,99914.91
2022-08-17T04:45:51.319Z,99915.41
2022-08-17T04:48:36.138Z,99921.69
2022-08-17T04:51:19.852Z,99913.22
2022-08-17T04:53:54.346Z,99898.72
2022-08-17T04:56:27.800Z,99899.75
2022-08-17T04:59:04.522Z,99890.50
2022-08-17T05:01:38.679Z,99885.56
2022-08-17T05:04:32.835Z,99879.53
2022-08-17T05:07:05.777Z,99877.91
2022-08-17T05:09:36.021Z,99875.19
2022-08-17T05:12:07.529Z,99876.31
2022-08-17T05:14:41.111Z,99880.34
2022-08-17T05:17:11.565Z,99875.72
2022-08-17T05:19:42.395Z,99874.03
2022-08-17T05:22:12.688Z,99874.03
2022-08-17T05:24:53.586Z,99877.53
2022-08-17T05:27:24.383Z,99878.66
2022-08-17T05:30:00.230Z,99879.47
2022-08-17T05:32:38.525Z,99866.44
2022-08-17T05:35:10.627Z,99870.59
2022-08-17T05:37:41.290Z,99864.31
2022-08-17T05:40:12.201Z,99861.91
2022-08-17T05:42:42.872Z,99867.25
2022-08-17T05:48:39.086Z,99866.88
2022-08-17T05:51:18.417Z,99855.19
2022-08-17T05:54:22.117Z,99845.19
2022-08-17T05:57:02.978Z,99847.41
2022-08-17T05:59:45.875Z,99838.25
2022-08-17T06:02:35.530Z,99837.66
2022-08-17T06:05:38.852Z,99824.34
2022-08-17T06:08:51.509Z,99823.34
2022-08-17T06:11:53.306Z,99831.72
2022-08-17T06:14:51.387Z,99832.03
2022-08-17T06:17:54.593Z,99824.47
2022-08-17T06:20:27.500Z,99824.69
2022-08-17T06:23:05.813Z,99821.34
2022-08-17T06:25:49.862Z,99814.53
2022-08-17T06:29:00.014Z,99811.81
2022-08-17T06:31:40.044Z,99807.38
2022-08-17T06:34:15.908Z,99808.91
2022-08-17T06:36:54.195Z,99805.25
2022-08-17T06:39:55.179Z,99800.03
2022-08-17T06:43:02.818Z,99802.19
2022-08-17T06:45:58.366Z,99786.91
2022-08-17T06:48:49.200Z,99787.41
2022-08-17T06:51:46.830Z,99791.31
2022-08-17T06:54:28.930Z,99796.38
2022-08-17T06:57:16.788Z,99791.91
2022-08-17T06:59:56.746Z,99791.63
2022-08-17T07:02:58.968Z,99787.91
2022-08-17T07:05:38.762Z,99780.63
2022-08-17T07:08:38.464Z,99778.50
2022-08-17T07:11:15.408Z,99781.84
2022-08-17T07:13:59.863Z,99781.84
2022-08-17T07:16:51.169Z,99775.00
2022-08-17T07:19:31.832Z,99780.13
2022-08-17T07:22:51.923Z,99771.38
2022-08-17T07:25:32.383Z,99765.00
2022-08-17T07:28:07.012Z,99773.91
2022-08-17T07:30:50.495Z,99777.31
2022-08-17T07:33:30.138Z,99775.09
2022-08-17T07:36:01.616Z,99773.75
2022-08-17T07:38:36.837Z,99765.59
2022-08-17T07:41:10.270Z,99764.50
2022-08-17T07:43:43.360Z,99766.22
2022-08-17T07:46:54.230Z,99771.97
2022-08-17T07:49:43.576Z,99766.53
2022-08-17T07:52:50.553Z,99757.34
2022-08-17T07:55:51.881Z,99762.28
2022-08-17T07:58:28.250Z,99760.38
2022-08-17T08:01:16.096Z,99754.31
2022-08-17T08:03:52.461Z,99753.22
2022-08-17T08:06:26.068Z,99755.94
2022-08-17T08:08:57.765Z,99755.34
2022-08-17T08:11:40.131Z,99754.50
2022-08-17T08:14:39.839Z,99755.44
2022-08-17T08:17:10.764Z,99753.59
2022-08-17T08:19:40.827Z,99751.19
2022-08-17T08:22:20.013Z,99741.44
2022-08-17T08:25:13.884Z,99741.72
2022-08-17T08:28:12.525Z,99741.22
2022-08-17T08:30:59.675Z,99749.69
2022-08-17T08:33:47.937Z,99742.91
2022-08-17T08:37:13.090Z,99738.59
2022-08-17T08:40:02.495Z,99739.91
2022-08-17T08:42:44.725Z,99738.31
2022-08-17T08:45:35.165Z,99742.72
2022-08-17T08:48:53.333Z,99746.06
2022-08-17T08:55:56.108Z,99734.22
2022-08-17T08:58:51.858Z,99729.84
2022-08-17T09:01:38.023Z,99728.41
2022-08-17T09:04:25.409Z,99727.63
2022-08-17T09:07:18.796Z,99732.22
2022-08-17T09:10:08.456Z,99720.56
2022-08-17T09:12:58.069Z,99717.34
2022-08-17T09:15:44.007Z,99713.59
2022-08-17T09:19:00.040Z,99709.84
2022-08-17T09:21:36.175Z,99706.91
2022-08-17T09:24:44.257Z,99701.25
2022-08-17T09:27:22.918Z,99706.22
2022-08-17T09:30:04.058Z,99710.66
2022-08-17T09:43:26.941Z,99716.88
2022-08-17T09:46:05.980Z,99712.63
2022-08-17T09:49:25.065Z,99709.72
2022-08-17T09:52:15.149Z,99705.97
2022-08-17T09:54:49.603Z,99719.66
2022-08-17T09:57:40.452Z,99709.38
2022-08-17T10:00:48.518Z,99710.78
2022-08-17T10:10:43.120Z,99710.28
2022-08-17T10:13:53.455Z,99710.38
2022-08-17T10:16:38.613Z,99708.56
2022-08-17T10:19:27.213Z,99714.56
2022-08-17T10:22:35.346Z,99720.88
2022-08-17T10:25:48.561Z,99714.44
2022-08-17T10:32:35.548Z,99710.78
2022-08-17T10:35:35.116Z,99713.88
2022-08-17T10:38:47.289Z,99721.75
2022-08-17T10:41:26.001Z,99726.69
2022-08-17T10:44:40.456Z,99732.69
2022-08-17T10:47:16.214Z,99725.41
2022-08-17T10:49:50.733Z,99723.00
2022-08-17T10:52:24.094Z,99718.97
2022-08-17T10:54:58.959Z,99722.25
2022-08-17T10:57:29.433Z,99726.66
2022-08-17T11:00:03.199Z,99731.59
2022-08-17T11:02:42.555Z,99727.81
2022-08-17T11:05:29.837Z,99731.94
2022-08-17T11:12:22.007Z,99735.00
2022-08-17T11:18:32.452Z,99731.28
2022-08-17T11:21:12.006Z,99729.94
2022-08-17T11:24:00.294Z,99728.63
2022-08-17T11:26:31.235Z,99728.09
2022-08-17T11:38:42.871Z,99748.81
2022-08-17T11:41:20.511Z,99757.28
2022-08-17T11:44:22.040Z,99754.03
2022-08-17T11:47:34.374Z,99759.72
2022-08-17T11:50:46.720Z,99762.44
2022-08-17T11:53:40.935Z,99776.84
2022-08-17T11:56:31.303Z,99764.63
2022-08-17T11:59:02.198Z,99772.25
2022-08-17T12:01:53.107Z,99775.47
2022-08-17T12:04:59.968Z,99770.31
2022-08-17T12:08:11.232Z,99760.06
2022-08-17T12:11:55.542Z,99768.50
2022-08-17T12:15:07.983Z,99765.25
2022-08-17T12:17:40.140Z,99766.34
2022-08-17T12:20:42.709Z,99761.22
2022-08-17T12:23:36.470Z,99762.59
2022-08-17T12:26:16.455Z,99767.19
2022-08-17T12:28:50.260Z,99761.25
2022-08-17T12:31:26.482Z,99760.75
2022-08-17T12:33:57.041Z,99764.25
2022-08-17T12:36:29.743Z,99764.56
2022-08-17T12:39:21.329Z,99760.50
2022-08-17T12:43:25.951Z,99769.72
2022-08-17T12:46:59.641Z,99769.22
2022-08-17T12:49:50.025Z,99776.56
2022-08-17T12:52:30.030Z,99784.16
2022-08-17T12:55:27.013Z,99776.03
2022-08-17T13:04:58.581Z,99787.69
2022-08-17T13:07:56.571Z,99788.25
2022-08-17T13:10:37.704Z,99783.66
2022-08-17T13:13:46.474Z,99787.16
2022-08-17T13:16:16.429Z,99790.97
2022-08-17T13:18:54.572Z,99798.00
2022-08-17T13:21:32.846Z,99798.81
2022-08-17T13:24:18.438Z,99807.22
2022-08-17T13:27:12.027Z,99805.63
2022-08-17T13:29:59.841Z,99805.63
2022-08-17T13:32:33.660Z,99811.06
2022-08-17T13:35:42.103Z,99805.91
2022-08-17T13:39:31.820Z,99802.41
2022-08-17T13:42:35.323Z,99810.81
2022-08-17T13:45:44.688Z,99812.69
2022-08-17T13:48:18.028Z,99814.63
2022-08-17T13:50:47.354Z,99813.81
2022-08-17T13:53:56.073Z,99808.38
2022-08-17T13:57:16.996Z,99805.97
2022-08-17T14:00:42.465Z,99803.53
2022-08-17T14:22:56.669Z,99794.41
2022-08-17T14:25:37.622Z,99797.91
2022-08-17T14:28:08.344Z,99795.47
2022-08-17T14:30:39.106Z,99790.34
2022-08-17T14:33:10.734Z,99790.34
2022-08-17T14:35:41.586Z,99791.97
2022-08-17T14:38:11.687Z,99797.38
2022-08-17T14:40:42.273Z,99796.88
2022-08-17T14:43:16.074Z,99792.53
2022-08-17T14:52:32.649Z,99792.28
2022-08-17T14:55:03.860Z,99782.00
2022-08-17T14:57:34.976Z,99779.59
2022-08-17T15:00:06.122Z,99782.56
2022-08-17T15:02:55.017Z,99779.59
2022-08-17T15:05:27.654Z,99782.56
2022-08-17T15:07:57.838Z,99771.19
2022-08-17T15:10:35.513Z,99772.78
2022-08-17T15:16:41.787Z,99781.78
2022-08-17T15:19:15.784Z,99779.38
2022-08-17T15:22:50.532Z,99773.13
2022-08-17T15:25:21.235Z,99773.41
2022-08-17T15:27:52.690Z,99771.00
2022-08-17T15:30:25.816Z,99777.78
2022-08-17T15:32:58.093Z,99770.75
2022-08-17T15:35:32.910Z,99772.91
2022-08-17T15:38:11.584Z,99778.34
2022-08-17T15:40:49.637Z,99764.53
2022-08-17T15:43:27.326Z,99764.81
2022-08-17T15:46:02.635Z,99763.22
2022-08-17T15:48:55.773Z,99767.28
2022-08-17T15:52:46.986Z,99769.75
2022-08-17T15:55:20.864Z,99774.13
2022-08-17T15:57:54.573Z,99761.41
2022-08-17T16:10:38.900Z,99767.41
2022-08-17T16:13:17.605Z,99765.78
2022-08-17T16:15:57.112Z,99757.94
2022-08-17T16:18:34.861Z,99752.53
2022-08-17T16:21:25.944Z,99739.53
2022-08-17T16:24:00.332Z,99729.81
2022-08-17T16:26:32.774Z,99725.47
2022-08-17T16:29:09.083Z,99721.16
2022-08-17T16:31:39.865Z,99731.44
2022-08-17T16:34:23.794Z,99725.22
2022-08-17T16:37:47.077Z,99728.47
2022-08-17T16:40:25.395Z,99742.84
2022-08-17T16:42:58.775Z,99735.00
2022-08-17T16:45:58.399Z,99737.44
2022-08-17T16:50:12.136Z,99724.97
2022-08-17T16:51:53.879Z,99730.91
2022-08-17T16:54:23.946Z,99729.31
2022-08-17T16:56:54.941Z,99728.22
2022-08-17T16:59:39.431Z,99735.53
2022-08-17T17:02:16.898Z,99732.81
2022-08-17T17:05:03.874Z,99723.38
2022-08-17T17:07:52.592Z,99715.78
2022-08-17T17:10:26.614Z,99725.78
2022-08-17T17:13:01.378Z,99724.19
2022-08-17T17:15:48.535Z,99728.78
2022-08-17T17:18:22.208Z,99725.53
2022-08-17T17:20:56.762Z,99721.75
2022-08-17T17:24:07.233Z,99724.47
2022-08-17T17:26:58.799Z,99713.09
2022-08-17T17:29:47.615Z,99722.81
2022-08-17T17:32:54.011Z,99714.69
2022-08-17T17:35:51.042Z,99718.50
2022-08-17T17:38:31.916Z,99721.22
2022-08-17T17:41:12.896Z,99720.69
2022-08-17T17:43:51.407Z,99726.13
2022-08-17T17:46:33.774Z,99716.88
2022-08-17T17:49:08.210Z,99716.38
2022-08-17T17:52:18.398Z,99702.81
2022-08-17T17:54:55.621Z,99696.88
2022-08-17T17:57:48.399Z,99698.22
2022-08-17T18:00:26.033Z,99708.25
2022-08-17T18:03:19.879Z,99706.63
2022-08-17T18:06:10.488Z,99709.63
2022-08-17T18:08:41.098Z,99710.69
2022-08-17T18:12:00.316Z,99704.75
2022-08-17T18:14:59.965Z,99697.72
2022-08-17T18:17:31.177Z,99696.91
2022-08-17T18:20:00.676Z,99692.06
2022-08-17T18:22:32.298Z,99694.75
2022-08-17T18:25:02.281Z,99694.50
2022-08-17T18:27:38.508Z,99696.41
2022-08-17T18:30:15.488Z,99694.00
2022-08-17T18:32:51.243Z,99695.38
2022-08-17T18:35:21.466Z,99684.31
2022-08-17T18:37:55.365Z,99678.63
2022-08-17T18:40:31.249Z,99679.19
2022-08-17T18:43:44.055Z,99682.16
2022-08-17T18:46:29.702Z,99679.22
2022-08-17T18:49:09.045Z,99675.16
2022-08-17T18:51:44.522Z,99678.16
2022-08-17T18:54:26.208Z,99667.63
2022-08-17T18:57:00.155Z,99658.94
2022-08-17T18:59:36.419Z,99654.91
2022-08-17T19:02:32.551Z,99659.81
2022-08-17T19:05:27.582Z,99641.41
2022-08-17T19:08:34.115Z,99644.38
2022-08-17T19:11:25.754Z,99627.34
2022-08-17T19:14:06.518Z,99634.13
2022-08-17T19:16:42.066Z,99633.88
2022-08-17T19:19:21.701Z,99638.47
2022-08-17T19:22:28.798Z,99647.97
2022-08-17T19:25:16.934Z,99658.78
2022-08-17T19:28:25.782Z,99645.81
2022-08-17T19:31:10.317Z,99645.25
2022-08-17T19:33:40.850Z,99649.84
2022-08-17T19:36:25.457Z,99643.38
2022-08-17T19:39:26.406Z,99643.38
2022-08-17T19:42:43.753Z,99639.03
2022-08-17T19:45:37.179Z,99628.50
2022-08-17T19:48:40.247Z,99627.16
2022-08-17T19:51:29.466Z,99624.44
2022-08-17T19:54:08.899Z,99631.75
2022-08-17T19:56:44.861Z,99633.94
2022-08-17T19:59:17.791Z,99617.19
2022-08-17T20:02:01.597Z,99620.97
2022-08-17T20:04:32.588Z,99623.66
2022-08-17T20:07:09.418Z,99622.03
2022-08-17T20:09:41.411Z,99629.63
2022-08-17T20:12:16.689Z,99626.41
2022-08-17T20:14:55.679Z,99634.50
2022-08-17T20:17:34.258Z,99636.41
2022-08-17T20:20:19.795Z,99635.59
2022-08-17T20:23:01.648Z,99629.91
2022-08-17T20:25:59.530Z,99638.03
2022-08-17T20:28:35.603Z,99631.28
2022-08-17T20:31:42.407Z,99629.13
2022-08-17T20:34:36.932Z,99623.97
2022-08-17T20:37:08.713Z,99635.06
2022-08-17T20:39:46.989Z,99629.94
2022-08-17T20:42:22.740Z,99621.03
2022-08-17T20:45:22.773Z,99628.09
2022-08-17T20:48:36.190Z,99627.00
2022-08-17T20:50:58.125Z,99622.16
2022-08-17T20:53:49.429Z,99629.16
2022-08-17T20:56:45.282Z,99641.63
2022-08-17T20:59:26.903Z,99632.44
2022-08-17T21:02:18.108Z,99628.91
2022-08-17T21:04:55.633Z,99635.16
2022-08-17T21:07:43.483Z,99633.00
2022-08-17T21:10:38.866Z,99630.84
2022-08-17T21:13:17.831Z,99633.81
2022-08-17T21:16:22.598Z,99644.09
2022-08-17T21:19:11.579Z,99644.63
2022-08-17T21:22:08.610Z,99640.88
2022-08-17T21:24:53.294Z,99636.81
2022-08-17T21:28:11.506Z,99645.75
2022-08-17T21:30:44.727Z,99653.31
2022-08-17T21:33:18.499Z,99642.78
2022-08-17T21:36:17.385Z,99646.00
2022-08-17T21:38:57.404Z,99645.75
2022-08-17T21:41:35.604Z,99646.00
2022-08-17T21:44:30.516Z,99639.00
2022-08-17T21:47:19.853Z,99649.28
2022-08-17T21:49:50.351Z,99652.78
2022-08-17T21:52:23.837Z,99645.50
2022-08-17T21:55:00.320Z,99653.84
2022-08-17T21:57:31.979Z,99656.03
2022-08-17T22:00:17.732Z,99656.28
2022-08-17T22:02:57.003Z,99652.25
2022-08-17T22:05:45.808Z,99652.00
2022-08-17T22:08:28.392Z,99651.16
2022-08-17T22:11:04.758Z,99649.81
2022-08-17T22:13:39.931Z,99649.81
2022-08-17T22:16:29.525Z,99652.53
2022-08-17T22:19:03.468Z,99655.50
2022-08-17T22:21:33.755Z,99657.38
2022-08-17T22:24:19.177Z,99660.09
2022-08-17T22:27:12.644Z,99663.31
2022-08-17T22:29:49.499Z,99662.25
2022-08-17T22:32:42.174Z,99660.09
2022-08-17T22:35:20.180Z,99665.50
2022-08-17T22:37:50.719Z,99650.34
2022-08-17T22:40:30.269Z,99654.69
2022-08-17T22:43:04.845Z,99659.56
2022-08-17T22:45:46.767Z,99663.59
2022-08-17T22:48:27.234Z,99667.38
2022-08-17T22:51:16.531Z,99680.31
2022-08-17T22:54:35.687Z,99679.78
2022-08-17T22:57:25.165Z,99673.56
2022-08-17T22:59:57.300Z,99668.44
2022-08-17T23:02:33.238Z,99660.91
2022-08-17T23:05:13.176Z,99655.72
2022-08-17T23:07:44.813Z,99660.56
2022-08-17T23:10:16.242Z,99664.06
2022-08-17T23:12:48.326Z,99662.69
2022-08-17T23:15:21.078Z,99656.75
2022-08-17T23:17:51.292Z,99664.28
2022-08-17T23:20:21.845Z,99665.34
2022-08-17T23:22:53.072Z,99660.72
2022-08-17T23:25:34.938Z,99674.50
2022-08-17T23:28:07.626Z,99663.97
2022-08-17T23:30:43.029Z,99656.94
2022-08-17T23:33:35.478Z,99667.47
2022-08-17T23:36:05.552Z,99666.13
2022-08-17T23:38:35.553Z,99658.59
2022-08-17T23:41:13.140Z,99658.31
2022-08-17T23:43:46.127Z,99648.09
2022-08-17T23:46:18.461Z,99654.03
2022-08-17T23:48:48.905Z,99641.34
2022-08-17T23:51:26.887Z,99642.13
2022-08-17T23:54:08.320Z,99643.25
2022-08-17T23:56:49.483Z,99635.69
2022-08-17T23:59:23.818Z,99648.09
